Time,TemperatureF,DewpointF,PressureIn,WindDirection,WindDirectionDegrees,WindSpeedMPH,WindSpeedGustMPH,Humidity,HourlyPrecipIn,Conditions,Clouds,dailyrainin,SoftwareType,DateUTC
2013-03-30 00:00:00,32.0,26.8,30.24,NW,321,0.0,2.0,81,0.00,,,0.00,Wunderground v.1.15,2013-03-30 04:00:00,
2013-03-30 00:02:00,32.0,27.1,30.24,NW,321,0.0,2.0,82,0.00,,,0.00,Wunderground v.1.15,2013-03-30 04:02:00,
2013-03-30 00:03:00,32.0,27.1,30.24,NW,321,0.0,2.0,82,0.00,,,0.00,Wunderground v.1.15,2013-03-30 04:03:00,
2013-03-30 00:04:00,32.0,27.1,30.24,NW,321,0.0,2.0,82,0.00,,,0.00,Wunderground v.1.15,2013-03-30 04:04:00,
2013-03-30 00:09:00,31.9,27.0,30.24,NW,321,0.0,2.0,82,0.00,,,0.00,Wunderground v.1.15,2013-03-30 04:09:00,
2013-03-30 00:15:00,31.7,27.1,30.24,NW,321,0.0,2.0,83,0.00,,,0.00,Wunderground v.1.15,2013-03-30 04:15:00,
2013-03-30 00:20:00,31.4,26.8,30.23,NW,321,0.0,2.0,83,0.00,,,0.00,Wunderground v.1.15,2013-03-30 04:20:00,
2013-03-30 00:27:00,31.1,26.5,30.23,NW,321,0.0,2.0,83,0.00,,,0.00,Wunderground v.1.15,2013-03-30 04:27:00,
2013-03-30 00:33:00,30.7,26.1,30.23,NW,321,0.0,2.0,83,0.00,,,0.00,Wunderground v.1.15,2013-03-30 04:33:00,
2013-03-30 00:38:00,30.5,26.0,30.23,NW,321,0.0,2.0,83,0.00,,,0.00,Wunderground v.1.15,2013-03-30 04:38:00,
2013-03-30 00:44:00,30.2,25.7,30.23,NW,321,0.0,2.0,83,0.00,,,0.00,Wunderground v.1.15,2013-03-30 04:44:00,
2013-03-30 00:49:00,30.0,25.8,30.23,NW,321,0.0,2.0,84,0.00,,,0.00,Wunderground v.1.15,2013-03-30 04:49:00,
2013-03-30 00:54:00,29.9,25.7,30.23,NW,321,0.0,2.0,84,0.00,,,0.00,Wunderground v.1.15,2013-03-30 04:54:00,
2013-03-30 01:00:00,29.7,25.7,30.23,NW,321,0.0,2.0,85,0.00,,,0.00,Wunderground v.1.15,2013-03-30 05:00:00,
2013-03-30 01:05:00,29.5,25.5,30.23,NW,321,0.0,2.0,85,0.00,,,0.00,Wunderground v.1.15,2013-03-30 05:05:00,
2013-03-30 01:10:00,29.4,25.4,30.23,NW,321,0.0,2.0,85,0.00,,,0.00,Wunderground v.1.15,2013-03-30 05:10:00,
2013-03-30 01:16:00,29.3,25.4,30.23,NW,321,0.0,2.0,85,0.00,,,0.00,Wunderground v.1.15,2013-03-30 05:16:00,
2013-03-30 01:22:00,29.2,25.5,30.23,NW,321,0.0,2.0,86,0.00,,,0.00,Wunderground v.1.15,2013-03-30 05:22:00,
2013-03-30 01:28:00,29.0,25.3,30.23,NW,321,0.0,2.0,86,0.00,,,0.00,Wunderground v.1.15,2013-03-30 05:28:00,
2013-03-30 01:33:00,28.9,25.2,30.23,NW,321,0.0,2.0,86,0.00,,,0.00,Wunderground v.1.15,2013-03-30 05:33:00,
2013-03-30 01:39:00,28.7,25.0,30.23,NW,321,0.0,2.0,86,0.00,,,0.00,Wunderground v.1.15,2013-03-30 05:39:00,
2013-03-30 01:44:00,28.6,24.9,30.23,NW,321,0.0,2.0,86,0.00,,,0.00,Wunderground v.1.15,2013-03-30 05:44:00,
2013-03-30 01:50:00,28.4,25.0,30.23,NW,321,0.0,2.0,87,0.00,,,0.00,Wunderground v.1.15,2013-03-30 05:50:00,
2013-03-30 01:56:00,28.4,25.0,30.23,NW,321,0.0,2.0,87,0.00,,,0.00,Wunderground v.1.15,2013-03-30 05:56:00,
2013-03-30 02:01:00,28.4,25.0,30.23,NW,321,0.0,2.0,87,0.00,,,0.00,Wunderground v.1.15,2013-03-30 06:01:00,
2013-03-30 02:07:00,28.3,25.2,30.23,NW,321,0.0,2.0,88,0.00,,,0.00,Wunderground v.1.15,2013-03-30 06:07:00,
2013-03-30 02:13:00,28.2,25.1,30.22,NW,321,0.0,2.0,88,0.00,,,0.00,Wunderground v.1.15,2013-03-30 06:13:00,
2013-03-30 02:18:00,28.1,25.0,30.22,NW,321,0.0,2.0,88,0.00,,,0.00,Wunderground v.1.15,2013-03-30 06:18:00,
2013-03-30 02:24:00,28.0,24.9,30.22,NW,321,0.0,2.0,88,0.00,,,0.00,Wunderground v.1.15,2013-03-30 06:24:00,
2013-03-30 02:29:00,28.0,24.9,30.22,NW,321,0.0,2.0,88,0.00,,,0.00,Wunderground v.1.15,2013-03-30 06:29:00,
2013-03-30 02:34:00,27.9,24.8,30.22,NW,321,0.0,2.0,88,0.00,,,0.00,Wunderground v.1.15,2013-03-30 06:34:00,
2013-03-30 02:40:00,27.7,24.6,30.22,NW,321,0.0,2.0,88,0.00,,,0.00,Wunderground v.1.15,2013-03-30 06:40:00,
2013-03-30 02:46:00,27.4,24.3,30.22,NW,321,0.0,2.0,88,0.00,,,0.00,Wunderground v.1.15,2013-03-30 06:46:00,
2013-03-30 02:52:00,27.0,23.9,30.22,NW,321,0.0,2.0,88,0.00,,,0.00,Wunderground v.1.15,2013-03-30 06:52:00,
2013-03-30 02:57:00,26.8,23.7,30.22,NW,321,0.0,2.0,88,0.00,,,0.00,Wunderground v.1.15,2013-03-30 06:57:00,
2013-03-30 03:03:00,26.6,23.5,30.22,NW,321,0.0,2.0,88,0.00,,,0.00,Wunderground v.1.15,2013-03-30 07:03:00,
2013-03-30 03:08:00,26.6,23.5,30.22,NW,321,0.0,2.0,88,0.00,,,0.00,Wunderground v.1.15,2013-03-30 07:08:00,
2013-03-30 03:13:00,26.6,23.8,30.22,NW,321,0.0,2.0,89,0.00,,,0.00,Wunderground v.1.15,2013-03-30 07:13:00,
2013-03-30 03:19:00,26.7,23.9,30.22,NW,321,0.0,2.0,89,0.00,,,0.00,Wunderground v.1.15,2013-03-30 07:19:00,
2013-03-30 03:24:00,26.9,24.1,30.22,NW,321,0.0,2.0,89,0.00,,,0.00,Wunderground v.1.15,2013-03-30 07:24:00,
2013-03-30 03:29:00,26.8,24.0,30.22,NW,321,0.0,2.0,89,0.00,,,0.00,Wunderground v.1.15,2013-03-30 07:29:00,
2013-03-30 03:35:00,26.8,24.0,30.22,NW,321,0.0,2.0,89,0.00,,,0.00,Wunderground v.1.15,2013-03-30 07:35:00,
2013-03-30 03:40:00,26.7,23.9,30.22,NW,321,0.0,2.0,89,0.00,,,0.00,Wunderground v.1.15,2013-03-30 07:40:00,
2013-03-30 03:45:00,26.6,23.8,30.22,NW,321,0.0,2.0,89,0.00,,,0.00,Wunderground v.1.15,2013-03-30 07:45:00,
2013-03-30 03:51:00,26.6,24.1,30.22,NW,321,0.0,2.0,90,0.00,,,0.00,Wunderground v.1.15,2013-03-30 07:51:00,
2013-03-30 03:57:00,26.6,24.1,30.22,NW,321,0.0,2.0,90,0.00,,,0.00,Wunderground v.1.15,2013-03-30 07:57:00,
2013-03-30 04:03:00,26.6,24.1,30.22,NW,321,0.0,2.0,90,0.00,,,0.00,Wunderground v.1.15,2013-03-30 08:03:00,
2013-03-30 04:08:00,26.6,24.1,30.22,NW,321,0.0,2.0,90,0.00,,,0.00,Wunderground v.1.15,2013-03-30 08:08:00,
2013-03-30 04:13:00,26.5,24.0,30.22,NW,321,0.0,2.0,90,0.00,,,0.00,Wunderground v.1.15,2013-03-30 08:13:00,
2013-03-30 04:19:00,26.3,23.8,30.22,NW,321,0.0,2.0,90,0.00,,,0.00,Wunderground v.1.15,2013-03-30 08:19:00,
2013-03-30 04:25:00,26.3,23.8,30.22,NW,321,0.0,2.0,90,0.00,,,0.00,Wunderground v.1.15,2013-03-30 08:25:00,
2013-03-30 04:30:00,26.4,23.9,30.22,NNW,338,0.0,2.0,90,0.00,,,0.00,Wunderground v.1.15,2013-03-30 08:30:00,
2013-03-30 04:36:00,26.7,24.2,30.21,NNE,17,0.0,2.0,90,0.00,,,0.00,Wunderground v.1.15,2013-03-30 08:36:00,
2013-03-30 04:42:00,26.9,24.4,30.21,NNE,17,0.0,2.0,90,0.00,,,0.00,Wunderground v.1.15,2013-03-30 08:42:00,
2013-03-30 04:47:00,27.3,24.8,30.21,NNE,17,0.0,2.0,90,0.00,,,0.00,Wunderground v.1.15,2013-03-30 08:47:00,
2013-03-30 04:53:00,27.1,24.6,30.22,NNE,17,0.0,2.0,90,0.00,,,0.00,Wunderground v.1.15,2013-03-30 08:53:00,
2013-03-30 04:58:00,27.0,24.5,30.22,NNE,17,0.0,2.0,90,0.00,,,0.00,Wunderground v.1.15,2013-03-30 08:58:00,
2013-03-30 05:04:00,27.2,24.7,30.22,NNE,17,0.0,2.0,90,0.00,,,0.00,Wunderground v.1.15,2013-03-30 09:04:00,
2013-03-30 05:09:00,27.2,24.7,30.22,NNE,17,0.0,2.0,90,0.00,,,0.00,Wunderground v.1.15,2013-03-30 09:09:00,
2013-03-30 05:15:00,27.0,24.5,30.22,NNE,17,0.0,2.0,90,0.00,,,0.00,Wunderground v.1.15,2013-03-30 09:15:00,
2013-03-30 05:20:00,26.6,24.1,30.22,NNE,17,0.0,2.0,90,0.00,,,0.00,Wunderground v.1.15,2013-03-30 09:20:00,
2013-03-30 05:27:00,26.6,24.1,30.22,NNE,17,0.0,2.0,90,0.00,,,0.00,Wunderground v.1.15,2013-03-30 09:27:00,
2013-03-30 05:32:00,26.5,24.0,30.22,NNE,17,0.0,2.0,90,0.00,,,0.00,Wunderground v.1.15,2013-03-30 09:32:00,
2013-03-30 05:38:00,26.3,23.8,30.22,NNE,17,0.0,2.0,90,0.00,,,0.00,Wunderground v.1.15,2013-03-30 09:38:00,
2013-03-30 05:42:00,26.2,23.7,30.22,NNE,17,0.0,2.0,90,0.00,,,0.00,Wunderground v.1.15,2013-03-30 09:42:00,
2013-03-30 05:47:00,26.1,23.6,30.22,NNE,17,0.0,2.0,90,0.00,,,0.00,Wunderground v.1.15,2013-03-30 09:47:00,
2013-03-30 05:52:00,26.1,23.6,30.21,NNE,17,0.0,2.0,90,0.00,,,0.00,Wunderground v.1.15,2013-03-30 09:52:00,
2013-03-30 05:57:00,-999.9,-99.9,30.22,NNE,17,0.0,2.0,255,-99.99,,,0.00,Wunderground v.1.15,2013-03-30 09:57:00,
2013-03-30 06:02:00,-999.9,-99.9,30.22,NNE,17,0.0,2.0,255,-99.99,,,0.00,Wunderground v.1.15,2013-03-30 10:02:00,
2013-03-30 06:08:00,-999.9,-99.9,30.22,NNE,17,0.0,2.0,255,-99.99,,,0.00,Wunderground v.1.15,2013-03-30 10:08:00,
2013-03-30 06:13:00,-999.9,-99.9,30.22,NNE,17,0.0,2.0,255,-99.99,,,0.00,Wunderground v.1.15,2013-03-30 10:13:00,
2013-03-30 06:19:00,-999.9,-99.9,30.21,NNE,17,0.0,2.0,255,-99.99,,,0.00,Wunderground v.1.15,2013-03-30 10:19:00,
2013-03-30 06:25:00,-999.9,-99.9,30.21,NNE,17,0.0,2.0,255,-99.99,,,0.00,Wunderground v.1.15,2013-03-30 10:25:00,
2013-03-30 06:30:00,-999.9,-99.9,30.21,NNE,17,0.0,2.0,255,-99.99,,,0.00,Wunderground v.1.15,2013-03-30 10:30:00,
2013-03-30 06:36:00,-999.9,-99.9,30.21,NNE,17,0.0,2.0,255,-99.99,,,0.00,Wunderground v.1.15,2013-03-30 10:36:00,
2013-03-30 06:41:00,-999.9,-99.9,30.21,NNE,17,0.0,2.0,255,-99.99,,,0.00,Wunderground v.1.15,2013-03-30 10:41:00,
2013-03-30 06:46:00,-999.9,-99.9,30.21,NNE,17,0.0,2.0,255,-99.99,,,0.00,Wunderground v.1.15,2013-03-30 10:46:00,
2013-03-30 06:52:00,-999.9,-99.9,30.21,NNE,17,0.0,2.0,255,-99.99,,,0.00,Wunderground v.1.15,2013-03-30 10:52:00,
2013-03-30 06:58:00,-999.9,-99.9,30.21,NNE,17,0.0,2.0,255,-99.99,,,0.00,Wunderground v.1.15,2013-03-30 10:58:00,
2013-03-30 07:03:00,-999.9,-99.9,30.22,NNE,17,0.0,2.0,255,-99.99,,,0.00,Wunderground v.1.15,2013-03-30 11:03:00,
2013-03-30 07:08:00,-999.9,-99.9,30.22,NNE,17,0.0,2.0,255,-99.99,,,0.00,Wunderground v.1.15,2013-03-30 11:08:00,
2013-03-30 07:14:00,-999.9,-99.9,30.22,NNE,17,0.0,2.0,255,-99.99,,,0.00,Wunderground v.1.15,2013-03-30 11:14:00,
2013-03-30 07:19:00,-999.9,-99.9,30.23,NNE,17,0.0,2.0,255,-99.99,,,0.00,Wunderground v.1.15,2013-03-30 11:19:00,
2013-03-30 07:25:00,-999.9,-99.9,30.23,NNE,17,0.0,2.0,255,-99.99,,,0.00,Wunderground v.1.15,2013-03-30 11:25:00,
2013-03-30 07:32:00,-999.9,-99.9,30.23,NNE,17,0.0,2.0,255,-99.99,,,0.00,Wunderground v.1.15,2013-03-30 11:32:00,
2013-03-30 07:37:00,-999.9,-99.9,30.23,NNE,17,0.0,2.0,255,-99.99,,,0.00,Wunderground v.1.15,2013-03-30 11:37:00,
2013-03-30 07:43:00,-999.9,-99.9,30.23,NNE,17,0.0,2.0,255,-99.99,,,0.00,Wunderground v.1.15,2013-03-30 11:43:00,
2013-03-30 07:48:00,-999.9,-99.9,30.23,NNE,17,0.0,2.0,255,-99.99,,,0.00,Wunderground v.1.15,2013-03-30 11:48:00,
2013-03-30 07:54:00,-999.9,-99.9,30.24,NNE,17,0.0,2.0,255,-99.99,,,0.00,Wunderground v.1.15,2013-03-30 11:54:00,
2013-03-30 07:59:00,-999.9,-99.9,30.24,NNE,17,0.0,2.0,255,-99.99,,,0.00,Wunderground v.1.15,2013-03-30 11:59:00,
2013-03-30 08:04:00,-999.9,-99.9,30.24,NNE,17,0.0,2.0,255,-99.99,,,0.00,Wunderground v.1.15,2013-03-30 12:04:00,
2013-03-30 08:10:00,-999.9,-99.9,30.24,NNE,17,0.0,2.0,255,-99.99,,,0.00,Wunderground v.1.15,2013-03-30 12:10:00,
2013-03-30 08:15:00,-999.9,-99.9,30.24,NNE,17,0.0,2.0,255,-99.99,,,0.00,Wunderground v.1.15,2013-03-30 12:15:00,
2013-03-30 08:21:00,-999.9,-99.9,30.24,NNE,17,0.0,2.0,255,-99.99,,,0.00,Wunderground v.1.15,2013-03-30 12:21:00,
2013-03-30 08:26:00,-999.9,-99.9,30.24,NNE,17,0.0,2.0,255,-99.99,,,0.00,Wunderground v.1.15,2013-03-30 12:26:00,
2013-03-30 08:32:00,-999.9,-99.9,30.24,NNE,17,0.0,2.0,255,-99.99,,,0.00,Wunderground v.1.15,2013-03-30 12:32:00,
2013-03-30 08:37:00,-999.9,-99.9,30.24,NNE,17,0.0,2.0,255,-99.99,,,0.00,Wunderground v.1.15,2013-03-30 12:37:00,
2013-03-30 08:43:00,-999.9,-99.9,30.24,NNE,17,0.0,2.0,255,-99.99,,,0.00,Wunderground v.1.15,2013-03-30 12:43:00,
2013-03-30 08:48:00,-999.9,-99.9,30.24,NNE,17,0.0,2.0,255,-99.99,,,0.00,Wunderground v.1.15,2013-03-30 12:48:00,
2013-03-30 08:53:00,-999.9,-99.9,30.24,NNE,17,0.0,2.0,255,-99.99,,,0.00,Wunderground v.1.15,2013-03-30 12:53:00,
2013-03-30 08:58:00,-999.9,-99.9,30.24,NNE,17,0.0,2.0,255,-99.99,,,0.00,Wunderground v.1.15,2013-03-30 12:58:00,
2013-03-30 09:03:00,-999.9,-99.9,30.24,NNE,17,0.0,2.0,255,-99.99,,,0.00,Wunderground v.1.15,2013-03-30 13:03:00,
2013-03-30 09:09:00,-999.9,-99.9,30.24,NNE,17,0.0,2.0,255,-99.99,,,0.00,Wunderground v.1.15,2013-03-30 13:09:00,
2013-03-30 09:14:00,-999.9,-99.9,30.24,NNE,17,0.0,2.0,255,-99.99,,,0.00,Wunderground v.1.15,2013-03-30 13:14:00,
2013-03-30 09:20:00,-999.9,-99.9,30.23,East,94,0.0,2.0,255,-99.99,,,0.00,Wunderground v.1.15,2013-03-30 13:20:00,
2013-03-30 09:26:00,-999.9,-99.9,30.23,SSE,148,0.0,2.0,255,-99.99,,,0.00,Wunderground v.1.15,2013-03-30 13:26:00,
2013-03-30 09:32:00,-999.9,-99.9,30.23,SSE,161,1.0,2.0,255,-99.99,,,0.00,Wunderground v.1.15,2013-03-30 13:32:00,
2013-03-30 09:37:00,-999.9,-99.9,30.23,SSE,158,0.0,2.0,255,-99.99,,,0.00,Wunderground v.1.15,2013-03-30 13:37:00,
2013-03-30 09:43:00,-999.9,-99.9,30.23,South,178,1.0,2.0,255,-99.99,,,0.00,Wunderground v.1.15,2013-03-30 13:43:00,
2013-03-30 09:48:00,-999.9,-99.9,30.23,South,187,2.0,4.0,255,-99.99,,,0.00,Wunderground v.1.15,2013-03-30 13:48:00,
2013-03-30 09:54:00,-999.9,-99.9,30.23,South,182,2.0,3.0,255,-99.99,,,0.00,Wunderground v.1.15,2013-03-30 13:54:00,
2013-03-30 09:59:00,-999.9,-99.9,30.22,South,186,2.0,5.0,255,-99.99,,,0.00,Wunderground v.1.15,2013-03-30 13:59:00,
2013-03-30 10:05:00,-999.9,-99.9,30.22,SSE,165,3.0,6.0,255,-99.99,,,0.00,Wunderground v.1.15,2013-03-30 14:05:00,
2013-03-30 10:11:00,-999.9,-99.9,30.22,SSE,160,3.0,3.0,255,-99.99,,,0.00,Wunderground v.1.15,2013-03-30 14:11:00,
2013-03-30 10:16:00,-999.9,-99.9,30.22,SSW,209,3.0,6.0,255,-99.99,,,0.00,Wunderground v.1.15,2013-03-30 14:16:00,
2013-03-30 10:22:00,-999.9,-99.9,30.22,South,180,5.0,9.0,255,-99.99,,,0.00,Wunderground v.1.15,2013-03-30 14:22:00,
2013-03-30 10:27:00,44.6,33.6,30.22,SSE,159,5.0,9.0,65,0.00,,,0.00,Wunderground v.1.15,2013-03-30 14:27:00,
2013-03-30 10:33:00,45.1,33.2,30.21,South,186,4.0,5.0,63,0.00,,,0.00,Wunderground v.1.15,2013-03-30 14:33:00,
2013-03-30 10:39:00,45.4,33.1,30.21,South,181,4.0,6.0,62,0.00,,,0.00,Wunderground v.1.15,2013-03-30 14:39:00,
2013-03-30 10:44:00,45.6,32.9,30.21,South,177,3.0,5.0,61,0.00,,,0.00,Wunderground v.1.15,2013-03-30 14:44:00,
2013-03-30 10:49:00,45.9,33.6,30.20,South,173,2.0,5.0,62,0.00,,,0.00,Wunderground v.1.15,2013-03-30 14:49:00,
2013-03-30 10:55:00,46.5,32.9,30.20,South,175,2.0,5.0,59,0.00,,,0.00,Wunderground v.1.15,2013-03-30 14:55:00,
2013-03-30 11:03:00,47.2,33.6,30.20,SE,141,2.0,5.0,59,0.00,,,0.00,Wunderground v.1.15,2013-03-30 15:03:00,
2013-03-30 11:08:00,47.7,33.6,30.20,SSE,156,3.0,5.0,58,0.00,,,0.00,Wunderground v.1.15,2013-03-30 15:08:00,
2013-03-30 11:14:00,48.6,34.5,30.20,SSE,159,2.0,3.0,58,0.00,,,0.00,Wunderground v.1.15,2013-03-30 15:14:00,
2013-03-30 11:19:00,49.0,33.5,30.20,SE,132,2.0,5.0,55,0.00,,,0.00,Wunderground v.1.15,2013-03-30 15:19:00,
2013-03-30 11:25:00,49.6,34.5,30.20,SSW,207,2.0,3.0,56,0.00,,,0.00,Wunderground v.1.15,2013-03-30 15:25:00,
2013-03-30 11:31:00,49.8,32.9,30.20,SSE,151,2.0,4.0,52,0.00,,,0.00,Wunderground v.1.15,2013-03-30 15:31:00,
2013-03-30 11:36:00,49.8,32.9,30.20,SSW,211,4.0,9.0,52,0.00,,,0.00,Wunderground v.1.15,2013-03-30 15:36:00,
2013-03-30 11:41:00,49.8,32.4,30.20,WSW,241,3.0,4.0,51,0.00,,,0.00,Wunderground v.1.15,2013-03-30 15:41:00,
2013-03-30 11:47:00,50.2,33.2,30.21,WSW,257,3.0,9.0,52,0.00,,,0.00,Wunderground v.1.15,2013-03-30 15:47:00,
2013-03-30 11:53:00,50.2,32.3,30.20,SSE,167,5.0,7.0,50,0.00,,,0.00,Wunderground v.1.15,2013-03-30 15:53:00,
2013-03-30 11:58:00,50.1,31.7,30.20,SSW,194,5.0,7.0,49,0.00,,,0.00,Wunderground v.1.15,2013-03-30 15:58:00,
2013-03-30 12:04:00,50.6,33.1,30.21,SSE,163,3.0,5.0,51,0.00,,,0.00,Wunderground v.1.15,2013-03-30 16:04:00,
2013-03-30 12:10:00,50.6,32.6,30.22,SW,229,4.0,5.0,50,0.00,,,0.00,Wunderground v.1.15,2013-03-30 16:10:00,
2013-03-30 12:15:00,50.3,30.8,30.22,WSW,248,7.0,13.0,47,0.00,,,0.00,Wunderground v.1.15,2013-03-30 16:15:00,
2013-03-30 12:22:00,50.5,31.0,30.21,WSW,244,3.0,5.0,47,0.00,,,0.00,Wunderground v.1.15,2013-03-30 16:22:00,
2013-03-30 12:28:00,51.5,33.5,30.20,SSW,196,0.0,5.0,50,0.00,,,0.00,Wunderground v.1.15,2013-03-30 16:28:00,
2013-03-30 12:33:00,51.8,32.7,30.20,SSW,198,2.0,10.0,48,0.00,,,0.00,Wunderground v.1.15,2013-03-30 16:33:00,
2013-03-30 12:38:00,52.0,32.9,30.19,West,271,3.0,10.0,48,0.00,,,0.00,Wunderground v.1.15,2013-03-30 16:38:00,
2013-03-30 12:44:00,52.4,32.2,30.19,SW,221,2.0,5.0,46,0.00,,,0.00,Wunderground v.1.15,2013-03-30 16:44:00,
2013-03-30 12:49:00,51.9,31.7,30.19,SSW,195,3.0,5.0,46,0.00,,,0.00,Wunderground v.1.15,2013-03-30 16:49:00,
2013-03-30 12:54:00,52.0,31.8,30.18,South,176,3.0,3.0,46,0.00,,,0.00,Wunderground v.1.15,2013-03-30 16:54:00,
2013-03-30 13:00:00,52.3,32.6,30.18,South,181,2.0,6.0,47,0.00,,,0.00,Wunderground v.1.15,2013-03-30 17:00:00,
2013-03-30 13:05:00,52.6,32.4,30.18,South,188,3.0,6.0,46,0.00,,,0.00,Wunderground v.1.15,2013-03-30 17:05:00,
2013-03-30 13:12:00,52.3,30.4,30.17,West,267,3.0,5.0,43,0.00,,,0.00,Wunderground v.1.15,2013-03-30 17:12:00,
2013-03-30 13:17:00,52.3,31.6,30.17,NNW,333,2.0,5.0,45,0.00,,,0.00,Wunderground v.1.15,2013-03-30 17:17:00,
2013-03-30 13:23:00,52.6,31.3,30.16,SSW,202,2.0,3.0,44,0.00,,,0.00,Wunderground v.1.15,2013-03-30 17:23:00,
2013-03-30 13:29:00,52.5,32.3,30.16,South,181,3.0,4.0,46,0.00,,,0.00,Wunderground v.1.15,2013-03-30 17:29:00,
2013-03-30 13:34:00,52.2,30.4,30.16,SW,221,3.0,7.0,43,0.00,,,0.00,Wunderground v.1.15,2013-03-30 17:34:00,
2013-03-30 13:40:00,52.8,31.5,30.15,SSW,206,2.0,2.0,44,0.00,,,0.00,Wunderground v.1.15,2013-03-30 17:40:00,
2013-03-30 13:45:00,53.2,31.3,30.15,WSW,238,2.0,4.0,43,0.00,,,0.00,Wunderground v.1.15,2013-03-30 17:45:00,
2013-03-30 13:50:00,53.2,31.8,30.15,SW,229,2.0,2.0,44,0.00,,,0.00,Wunderground v.1.15,2013-03-30 17:50:00,
2013-03-30 13:55:00,53.9,33.6,30.15,NW,304,1.0,4.0,46,0.00,,,0.00,Wunderground v.1.15,2013-03-30 17:55:00,
2013-03-30 14:01:00,54.7,33.8,30.14,SW,218,3.0,3.0,45,0.00,,,0.00,Wunderground v.1.15,2013-03-30 18:01:00,
2013-03-30 14:06:00,54.4,31.8,30.14,West,266,3.0,8.0,42,0.00,,,0.00,Wunderground v.1.15,2013-03-30 18:06:00,
2013-03-30 14:12:00,54.1,33.2,30.14,WSW,254,5.0,7.0,45,0.00,,,0.00,Wunderground v.1.15,2013-03-30 18:12:00,
2013-03-30 14:18:00,53.9,30.7,30.14,SSW,192,4.0,7.0,41,0.00,,,0.00,Wunderground v.1.15,2013-03-30 18:18:00,
2013-03-30 14:23:00,54.0,32.6,30.14,WSW,239,2.0,5.0,44,0.00,,,0.00,Wunderground v.1.15,2013-03-30 18:23:00,
2013-03-30 14:29:00,54.5,31.9,30.13,West,267,2.0,5.0,42,0.00,,,0.00,Wunderground v.1.15,2013-03-30 18:29:00,
2013-03-30 14:34:00,54.8,30.3,30.13,WNW,297,1.0,2.0,39,0.00,,,0.00,Wunderground v.1.15,2013-03-30 18:34:00,
2013-03-30 14:40:00,55.1,30.6,30.13,South,190,1.0,3.0,39,0.00,,,0.00,Wunderground v.1.15,2013-03-30 18:40:00,
2013-03-30 14:45:00,54.8,32.1,30.13,SW,232,2.0,10.0,42,0.00,,,0.00,Wunderground v.1.15,2013-03-30 18:45:00,
2013-03-30 14:52:00,54.7,31.4,30.13,South,182,2.0,6.0,41,0.00,,,0.00,Wunderground v.1.15,2013-03-30 18:52:00,
2013-03-30 14:57:00,54.7,30.8,30.12,SSE,164,3.0,10.0,40,0.00,,,0.00,Wunderground v.1.15,2013-03-30 18:57:00,
2013-03-30 15:03:00,54.8,32.1,30.12,ESE,103,2.0,3.0,42,0.00,,,0.00,Wunderground v.1.15,2013-03-30 19:03:00,
2013-03-30 15:08:00,55.2,32.5,30.12,WSW,242,2.0,7.0,42,0.00,,,0.00,Wunderground v.1.15,2013-03-30 19:08:00,
2013-03-30 15:14:00,56.0,32.0,30.11,SE,142,2.0,4.0,40,0.00,,,0.00,Wunderground v.1.15,2013-03-30 19:14:00,
2013-03-30 15:19:00,57.0,34.7,30.11,WNW,288,3.0,10.0,43,0.00,,,0.00,Wunderground v.1.15,2013-03-30 19:19:00,
2013-03-30 15:24:00,57.2,33.1,30.11,WSW,238,2.0,6.0,40,0.00,,,0.00,Wunderground v.1.15,2013-03-30 19:24:00,
2013-03-30 15:30:00,56.4,31.1,30.11,SSE,156,2.0,2.0,38,0.00,,,0.00,Wunderground v.1.15,2013-03-30 19:30:00,
2013-03-30 15:36:00,56.9,32.8,30.11,SSW,200,2.0,8.0,40,0.00,,,0.00,Wunderground v.1.15,2013-03-30 19:36:00,
2013-03-30 15:42:00,57.0,32.9,30.11,WNW,284,2.0,4.0,40,0.00,,,0.00,Wunderground v.1.15,2013-03-30 19:42:00,
2013-03-30 15:48:00,56.9,31.5,30.10,SW,232,3.0,11.0,38,0.00,,,0.00,Wunderground v.1.15,2013-03-30 19:48:00,
2013-03-30 15:53:00,56.1,31.5,30.10,SW,219,5.0,10.0,39,0.00,,,0.00,Wunderground v.1.15,2013-03-30 19:53:00,
2013-03-30 15:59:00,56.3,32.9,30.10,NNW,332,2.0,10.0,41,0.00,,,0.00,Wunderground v.1.15,2013-03-30 19:59:00,
2013-03-30 16:04:00,56.2,32.2,30.10,WSW,248,1.0,4.0,40,0.00,,,0.00,Wunderground v.1.15,2013-03-30 20:04:00,
2013-03-30 16:09:00,56.5,31.8,30.10,SW,232,2.0,7.0,39,0.00,,,0.00,Wunderground v.1.15,2013-03-30 20:09:00,
2013-03-30 16:15:00,56.6,31.9,30.09,SSW,212,2.0,7.0,39,0.00,,,0.00,Wunderground v.1.15,2013-03-30 20:15:00,
2013-03-30 16:20:00,56.4,30.4,30.09,West,268,3.0,3.0,37,0.00,,,0.00,Wunderground v.1.15,2013-03-30 20:20:00,
2013-03-30 16:26:00,55.8,29.9,30.09,SW,216,5.0,6.0,37,0.00,,,0.00,Wunderground v.1.15,2013-03-30 20:26:00,
2013-03-30 16:31:00,55.1,29.9,30.08,SW,220,5.0,5.0,38,0.00,,,0.00,Wunderground v.1.15,2013-03-30 20:31:00,
2013-03-30 16:36:00,54.8,29.7,30.08,SSW,196,4.0,5.0,38,0.00,,,0.00,Wunderground v.1.15,2013-03-30 20:36:00,
2013-03-30 16:41:00,54.6,30.1,30.08,SSW,196,1.0,2.0,39,0.00,,,0.00,Wunderground v.1.15,2013-03-30 20:41:00,
2013-03-30 16:47:00,54.8,30.3,30.08,SSW,204,0.0,2.0,39,0.00,,,0.00,Wunderground v.1.15,2013-03-30 20:47:00,
2013-03-30 16:52:00,55.0,29.8,30.08,West,279,1.0,5.0,38,0.00,,,0.00,Wunderground v.1.15,2013-03-30 20:52:00,
2013-03-30 16:58:00,55.0,29.2,30.07,WSW,241,2.0,6.0,37,0.00,,,0.00,Wunderground v.1.15,2013-03-30 20:58:00,
2013-03-30 17:03:00,55.0,29.2,30.07,SW,221,2.0,4.0,37,0.00,,,0.00,Wunderground v.1.15,2013-03-30 21:03:00,
2013-03-30 17:09:00,54.5,28.1,30.07,SW,223,3.0,7.0,36,0.00,,,0.00,Wunderground v.1.15,2013-03-30 21:09:00,
2013-03-30 17:14:00,54.6,28.8,30.07,South,175,2.0,5.0,37,0.00,,,0.00,Wunderground v.1.15,2013-03-30 21:14:00,
2013-03-30 17:19:00,54.5,28.7,30.06,South,178,1.0,5.0,37,0.00,,,0.00,Wunderground v.1.15,2013-03-30 21:19:00,
2013-03-30 17:25:00,54.4,28.6,30.06,SE,141,2.0,2.0,37,0.00,,,0.00,Wunderground v.1.15,2013-03-30 21:25:00,
2013-03-30 17:32:00,54.3,28.6,30.06,SSW,209,1.0,4.0,37,0.00,,,0.00,Wunderground v.1.15,2013-03-30 21:32:00,
2013-03-30 17:38:00,54.2,29.1,30.06,SW,220,1.0,4.0,38,0.00,,,0.00,Wunderground v.1.15,2013-03-30 21:38:00,
2013-03-30 17:44:00,54.2,28.5,30.06,SW,220,0.0,3.0,37,0.00,,,0.00,Wunderground v.1.15,2013-03-30 21:44:00,
2013-03-30 17:49:00,54.4,30.6,30.06,SSE,163,1.0,3.0,40,0.00,,,0.00,Wunderground v.1.15,2013-03-30 21:49:00,
2013-03-30 17:55:00,54.3,28.6,30.06,SSW,193,2.0,4.0,37,0.00,,,0.00,Wunderground v.1.15,2013-03-30 21:55:00,
2013-03-30 18:00:00,54.1,28.4,30.05,SSW,213,2.0,2.0,37,0.00,,,0.00,Wunderground v.1.15,2013-03-30 22:00:00,
2013-03-30 18:05:00,54.0,28.9,30.05,SW,219,0.0,2.0,38,0.00,,,0.00,Wunderground v.1.15,2013-03-30 22:05:00,
2013-03-30 18:11:00,53.9,28.2,30.05,SSW,194,1.0,2.0,37,0.00,,,0.00,Wunderground v.1.15,2013-03-30 22:11:00,
2013-03-30 18:16:00,54.0,28.3,30.05,South,170,1.0,2.0,37,0.00,,,0.00,Wunderground v.1.15,2013-03-30 22:16:00,
2013-03-30 18:23:00,54.0,28.3,30.05,SE,133,0.0,2.0,37,0.00,,,0.00,Wunderground v.1.15,2013-03-30 22:23:00,
2013-03-30 18:28:00,54.0,28.3,30.05,WSW,252,1.0,4.0,37,0.00,,,0.00,Wunderground v.1.15,2013-03-30 22:28:00,
2013-03-30 18:33:00,53.9,28.2,30.05,WSW,238,2.0,2.0,37,0.00,,,0.00,Wunderground v.1.15,2013-03-30 22:33:00,
2013-03-30 18:39:00,53.9,28.2,30.05,SSW,213,1.0,2.0,37,0.00,,,0.00,Wunderground v.1.15,2013-03-30 22:39:00,
2013-03-30 18:45:00,53.8,28.1,30.04,SW,215,0.0,2.0,37,0.00,,,0.00,Wunderground v.1.15,2013-03-30 22:45:00,
2013-03-30 18:50:00,53.9,28.8,30.04,SW,215,0.0,2.0,38,0.00,,,0.00,Wunderground v.1.15,2013-03-30 22:50:00,
2013-03-30 18:57:00,53.8,28.1,30.04,SW,215,0.0,2.0,37,0.00,,,0.00,Wunderground v.1.15,2013-03-30 22:57:00,
2013-03-30 19:03:00,53.8,29.4,30.04,SW,215,0.0,2.0,39,0.00,,,0.00,Wunderground v.1.15,2013-03-30 23:03:00,
2013-03-30 19:08:00,53.6,29.2,30.04,SW,215,0.0,2.0,39,0.00,,,0.00,Wunderground v.1.15,2013-03-30 23:08:00,
2013-03-30 19:14:00,53.3,28.3,30.04,SW,215,0.0,2.0,38,0.00,,,0.00,Wunderground v.1.15,2013-03-30 23:14:00,
2013-03-30 19:19:00,53.1,28.8,30.04,SW,215,0.0,2.0,39,0.00,,,0.00,Wunderground v.1.15,2013-03-30 23:19:00,
2013-03-30 19:24:00,52.6,28.3,30.03,SW,215,0.0,2.0,39,0.00,,,0.00,Wunderground v.1.15,2013-03-30 23:24:00,
2013-03-30 19:29:00,52.2,28.0,30.03,SW,215,0.0,2.0,39,0.00,,,0.00,Wunderground v.1.15,2013-03-30 23:29:00,
2013-03-30 19:35:00,51.8,28.2,30.03,SW,215,0.0,2.0,40,0.00,,,0.00,Wunderground v.1.15,2013-03-30 23:35:00,
2013-03-30 19:40:00,51.3,29.0,30.03,SW,215,0.0,2.0,42,0.00,,,0.00,Wunderground v.1.15,2013-03-30 23:40:00,
2013-03-30 19:46:00,50.7,30.7,30.03,SW,215,0.0,2.0,46,0.00,,,0.00,Wunderground v.1.15,2013-03-30 23:46:00,
2013-03-30 19:52:00,50.0,30.0,30.03,SW,215,0.0,2.0,46,0.00,,,0.00,Wunderground v.1.15,2013-03-30 23:52:00,
2013-03-30 19:57:00,49.5,30.1,30.03,SW,215,0.0,2.0,47,0.00,,,0.00,Wunderground v.1.15,2013-03-30 23:57:00,
2013-03-30 20:03:00,48.9,30.6,30.03,SW,215,0.0,2.0,49,0.00,,,0.00,Wunderground v.1.15,2013-03-31 00:03:00,
2013-03-30 20:09:00,48.2,30.9,30.02,SW,215,0.0,2.0,51,0.00,,,0.00,Wunderground v.1.15,2013-03-31 00:09:00,
2013-03-30 20:14:00,47.6,30.3,30.03,SW,215,0.0,2.0,51,0.00,,,0.00,Wunderground v.1.15,2013-03-31 00:14:00,
2013-03-30 20:20:00,47.0,30.7,30.02,SW,215,0.0,2.0,53,0.00,,,0.00,Wunderground v.1.15,2013-03-31 00:20:00,
2013-03-30 20:25:00,46.5,31.6,30.02,SW,215,0.0,2.0,56,0.00,,,0.00,Wunderground v.1.15,2013-03-31 00:25:00,
2013-03-30 20:30:00,46.0,31.2,30.02,SW,215,0.0,2.0,56,0.00,,,0.00,Wunderground v.1.15,2013-03-31 00:30:00,
2013-03-30 20:35:00,45.5,30.7,30.02,SW,215,0.0,2.0,56,0.00,,,0.00,Wunderground v.1.15,2013-03-31 00:35:00,
2013-03-30 20:41:00,45.0,31.9,30.02,SW,215,0.0,2.0,60,0.00,,,0.00,Wunderground v.1.15,2013-03-31 00:41:00,
2013-03-30 20:47:00,44.6,31.6,30.02,SW,215,0.0,2.0,60,0.00,,,0.00,Wunderground v.1.15,2013-03-31 00:47:00,
2013-03-30 20:53:00,44.2,32.4,30.02,SW,215,0.0,2.0,63,0.00,,,0.00,Wunderground v.1.15,2013-03-31 00:53:00,
2013-03-30 20:58:00,43.9,31.3,30.02,SW,215,0.0,2.0,61,0.00,,,0.00,Wunderground v.1.15,2013-03-31 00:58:00,
2013-03-30 21:04:00,43.6,30.6,30.02,SW,215,0.0,2.0,60,0.00,,,0.00,Wunderground v.1.15,2013-03-31 01:04:00,
2013-03-30 21:09:00,43.3,30.3,30.02,SW,215,0.0,2.0,60,0.00,,,0.00,Wunderground v.1.15,2013-03-31 01:09:00,
2013-03-30 21:15:00,43.0,30.5,30.02,SW,215,0.0,2.0,61,0.00,,,0.00,Wunderground v.1.15,2013-03-31 01:15:00,
2013-03-30 21:20:00,42.8,30.3,30.01,SW,215,0.0,2.0,61,0.00,,,0.00,Wunderground v.1.15,2013-03-31 01:20:00,
2013-03-30 21:25:00,42.5,30.0,30.01,SW,215,0.0,2.0,61,0.00,,,0.00,Wunderground v.1.15,2013-03-31 01:25:00,
2013-03-30 21:31:00,42.0,30.7,30.01,SSW,192,0.0,2.0,64,0.00,,,0.00,Wunderground v.1.15,2013-03-31 01:31:00,
2013-03-30 21:37:00,41.6,30.7,30.01,East,81,0.0,2.0,65,0.00,,,0.00,Wunderground v.1.15,2013-03-31 01:37:00,
2013-03-30 21:42:00,41.3,30.0,30.00,ENE,75,1.0,2.0,64,0.00,,,0.00,Wunderground v.1.15,2013-03-31 01:42:00,
2013-03-30 21:48:00,40.9,29.7,30.00,ENE,73,1.0,2.0,64,0.00,,,0.00,Wunderground v.1.15,2013-03-31 01:48:00,
2013-03-30 21:53:00,40.6,29.7,30.00,East,82,0.0,2.0,65,0.00,,,0.00,Wunderground v.1.15,2013-03-31 01:53:00,
2013-03-30 21:59:00,40.3,29.8,30.00,East,83,0.0,2.0,66,0.00,,,0.00,Wunderground v.1.15,2013-03-31 01:59:00,
2013-03-30 22:04:00,40.2,29.7,29.99,East,83,0.0,2.0,66,0.00,,,0.00,Wunderground v.1.15,2013-03-31 02:04:00,
2013-03-30 22:09:00,40.2,29.4,29.99,East,80,1.0,2.0,65,0.00,,,0.00,Wunderground v.1.15,2013-03-31 02:09:00,
2013-03-30 22:15:00,40.2,29.4,29.99,ENE,72,1.0,2.0,65,0.00,,,0.00,Wunderground v.1.15,2013-03-31 02:15:00,
2013-03-30 22:21:00,40.4,29.6,29.99,ENE,72,1.0,2.0,65,0.00,,,0.00,Wunderground v.1.15,2013-03-31 02:21:00,
2013-03-30 22:27:00,41.3,29.6,29.99,East,88,1.0,2.0,63,0.00,,,0.00,Wunderground v.1.15,2013-03-31 02:27:00,
2013-03-30 22:33:00,42.2,30.1,29.99,ENE,69,1.0,2.0,62,0.00,,,0.00,Wunderground v.1.15,2013-03-31 02:33:00,
2013-03-30 22:38:00,42.8,29.9,29.98,ENE,77,1.0,2.0,60,0.00,,,0.00,Wunderground v.1.15,2013-03-31 02:38:00,
2013-03-30 22:43:00,43.4,30.0,29.98,ENE,62,1.0,2.0,59,0.00,,,0.00,Wunderground v.1.15,2013-03-31 02:43:00,
2013-03-30 22:49:00,44.0,29.7,29.98,ENE,76,2.0,3.0,57,0.00,,,0.00,Wunderground v.1.15,2013-03-31 02:49:00,
2013-03-30 22:54:00,44.5,29.8,29.98,East,90,2.0,2.0,56,0.00,,,0.00,Wunderground v.1.15,2013-03-31 02:54:00,
2013-03-30 23:00:00,44.8,29.6,29.98,East,81,1.0,1.0,55,0.00,,,0.00,Wunderground v.1.15,2013-03-31 03:00:00,
2013-03-30 23:05:00,45.0,29.8,29.98,ENE,76,1.0,3.0,55,0.00,,,0.00,Wunderground v.1.15,2013-03-31 03:05:00,
2013-03-30 23:12:00,45.0,29.8,29.97,ENE,74,1.0,2.0,55,0.00,,,0.00,Wunderground v.1.15,2013-03-31 03:12:00,
2013-03-30 23:17:00,44.9,29.7,29.97,East,81,0.0,3.0,55,0.00,,,0.00,Wunderground v.1.15,2013-03-31 03:17:00,
2013-03-30 23:22:00,44.8,30.0,29.97,ENE,67,0.0,2.0,56,0.00,,,0.00,Wunderground v.1.15,2013-03-31 03:22:00,
2013-03-30 23:28:00,44.6,29.9,29.97,ENE,78,0.0,2.0,56,0.00,,,0.00,Wunderground v.1.15,2013-03-31 03:28:00,
2013-03-30 23:33:00,44.5,30.2,29.97,East,81,1.0,2.0,57,0.00,,,0.00,Wunderground v.1.15,2013-03-31 03:33:00,
2013-03-30 23:38:00,44.5,29.8,29.97,ENE,76,1.0,3.0,56,0.00,,,0.00,Wunderground v.1.15,2013-03-31 03:38:00,
2013-03-30 23:44:00,44.3,30.0,29.96,ENE,68,0.0,2.0,57,0.00,,,0.00,Wunderground v.1.15,2013-03-31 03:44:00,
2013-03-30 23:49:00,43.9,30.1,29.96,ENE,78,0.0,2.0,58,0.00,,,0.00,Wunderground v.1.15,2013-03-31 03:49:00,
2013-03-30 23:54:00,43.5,30.1,29.96,East,87,0.0,2.0,59,0.00,,,0.00,Wunderground v.1.15,2013-03-31 03:54:00,